ITY1531 LIEE-LIML
Flight info
| Callsign | ITY1531 |
|---|---|
| Flight time | 0h 59m |
| Altitude | 30000 |
| Route | KOVAS DCT DEXUL DCT GIGGI DCT UPDUT DCT CORSI DCT OKROK DCT AKUTI DCT TORTU DCT OLETI DCT UNITA DCT OTMUV DCT GEN |
| Aircraft | A20N/M-SDE2E3FGHIRWXY/LB1 |
Departure
| Time | 2026-05-07 19:28 |
|---|---|
| Airport | Cagliari Elmas Airport (LIEE) |
Arrival
| Time | 2026-05-07 20:27 |
|---|---|
| Airport | Milano Linate Airport (LIML) |
| Time | Latitude | Longitude | Altitude | Speed | Heading |
|---|---|---|---|---|---|
| 2026-05-07 19:04 | 39.25260 | 9.05986 | 21 ft | 0 kts | 328° |
| 2026-05-07 19:20 | 39.25253 | 9.05992 | 21 ft | 3 kts | 328° |
| 2026-05-07 19:20 | 39.25238 | 9.06005 | 21 ft | 3 kts | 328° |
| 2026-05-07 19:20 | 39.25224 | 9.06020 | 23 ft | 3 kts | 278° |
| 2026-05-07 19:21 | 39.25224 | 9.06033 | 22 ft | 0 kts | 234° |
| 2026-05-07 19:23 | 39.25223 | 9.06032 | 21 ft | 1 kts | 234° |
| 2026-05-07 19:23 | 39.25201 | 9.05991 | 21 ft | 10 kts | 237° |
| 2026-05-07 19:24 | 39.25164 | 9.05879 | 21 ft | 17 kts | 251° |
| 2026-05-07 19:24 | 39.25145 | 9.05720 | 23 ft | 20 kts | 315° |
| 2026-05-07 19:24 | 39.25256 | 9.05582 | 22 ft | 22 kts | 317° |
| 2026-05-07 19:24 | 39.25372 | 9.05451 | 22 ft | 22 kts | 319° |
| 2026-05-07 19:25 | 39.25488 | 9.05319 | 22 ft | 22 kts | 318° |
| 2026-05-07 19:25 | 39.25602 | 9.05188 | 23 ft | 22 kts | 318° |
| 2026-05-07 19:25 | 39.25715 | 9.05057 | 23 ft | 22 kts | 318° |
| 2026-05-07 19:25 | 39.25827 | 9.04927 | 25 ft | 22 kts | 318° |
| 2026-05-07 19:26 | 39.25901 | 9.04841 | 25 ft | 21 kts | 317° |
| 2026-05-07 19:26 | 39.26006 | 9.04718 | 23 ft | 17 kts | 317° |
| 2026-05-07 19:26 | 39.26093 | 9.04614 | 25 ft | 17 kts | 307° |
| 2026-05-07 19:26 | 39.26128 | 9.04477 | 28 ft | 16 kts | 270° |
| 2026-05-07 19:27 | 39.26063 | 9.04387 | 23 ft | 15 kts | 172° |
| 2026-05-07 19:27 | 39.26004 | 9.04441 | 23 ft | 0 kts | 137° |
| 2026-05-07 19:27 | 39.25978 | 9.04472 | 23 ft | 28 kts | 137° |
| 2026-05-07 19:27 | 39.25617 | 9.04890 | 25 ft | 112 kts | 137° |
| 2026-05-07 19:28 | 39.24851 | 9.05745 | 260 ft | 163 kts | 142° |
| 2026-05-07 19:28 | 39.23965 | 9.06692 | 1142 ft | 167 kts | 141° |
| 2026-05-07 19:28 | 39.23008 | 9.07744 | 1626 ft | 196 kts | 141° |
| 2026-05-07 19:28 | 39.21916 | 9.08940 | 2093 ft | 213 kts | 138° |
| 2026-05-07 19:29 | 39.20803 | 9.10241 | 2995 ft | 216 kts | 137° |
| 2026-05-07 19:29 | 39.19628 | 9.11460 | 3970 ft | 220 kts | 149° |
| 2026-05-07 19:29 | 39.18149 | 9.12029 | 4895 ft | 229 kts | 179° |
| 2026-05-07 19:29 | 39.16612 | 9.11461 | 5644 ft | 238 kts | 213° |
| 2026-05-07 19:30 | 39.15373 | 9.09990 | 6581 ft | 244 kts | 226° |
| 2026-05-07 19:30 | 39.14344 | 9.08233 | 7535 ft | 249 kts | 240° |
| 2026-05-07 19:30 | 39.13890 | 9.06086 | 8374 ft | 260 kts | 269° |
| 2026-05-07 19:30 | 39.14345 | 9.03783 | 8990 ft | 279 kts | 303° |
| 2026-05-07 19:31 | 39.15672 | 9.01852 | 9502 ft | 297 kts | 320° |
| 2026-05-07 19:31 | 39.17256 | 9.00085 | 10246 ft | 304 kts | 322° |
| 2026-05-07 19:31 | 39.18877 | 8.98306 | 11079 ft | 308 kts | 320° |
| 2026-05-07 19:31 | 39.20501 | 8.96491 | 11976 ft | 310 kts | 319° |
| 2026-05-07 19:32 | 39.22140 | 8.94705 | 13040 ft | 306 kts | 323° |
| 2026-05-07 19:32 | 39.24033 | 8.93419 | 13975 ft | 313 kts | 342° |
| 2026-05-07 19:32 | 39.26244 | 8.92926 | 14358 ft | 334 kts | 355° |
| 2026-05-07 19:32 | 39.28637 | 8.92756 | 14661 ft | 355 kts | 358° |
| 2026-05-07 19:33 | 39.31174 | 8.92630 | 14957 ft | 374 kts | 358° |
| 2026-05-07 19:33 | 39.33788 | 8.92483 | 15374 ft | 387 kts | 357° |
| 2026-05-07 19:33 | 39.36502 | 8.92310 | 16006 ft | 393 kts | 356° |
| 2026-05-07 19:33 | 39.39259 | 8.92125 | 16703 ft | 398 kts | 356° |
| 2026-05-07 19:34 | 39.42054 | 8.92165 | 17427 ft | 405 kts | 6° |
| 2026-05-07 19:34 | 39.44799 | 8.93158 | 18090 ft | 416 kts | 23° |
| 2026-05-07 19:34 | 39.47410 | 8.94866 | 18639 ft | 423 kts | 28° |
| 2026-05-07 19:34 | 39.49991 | 8.96729 | 19253 ft | 426 kts | 29° |
| 2026-05-07 19:35 | 39.52587 | 8.98619 | 19860 ft | 430 kts | 29° |
| 2026-05-07 19:35 | 39.55214 | 9.00521 | 20423 ft | 434 kts | 29° |
| 2026-05-07 19:35 | 39.57874 | 9.02437 | 21005 ft | 438 kts | 28° |
| 2026-05-07 19:35 | 39.60545 | 9.04356 | 21570 ft | 441 kts | 28° |
| 2026-05-07 19:36 | 39.63269 | 9.06248 | 22102 ft | 445 kts | 25° |
| 2026-05-07 19:36 | 39.66148 | 9.07738 | 22654 ft | 446 kts | 18° |
| 2026-05-07 19:36 | 39.69071 | 9.08941 | 23288 ft | 446 kts | 15° |
| 2026-05-07 19:36 | 39.72072 | 9.10024 | 23761 ft | 450 kts | 13° |
| 2026-05-07 19:37 | 39.75123 | 9.11042 | 24161 ft | 454 kts | 13° |
| 2026-05-07 19:37 | 39.78203 | 9.12038 | 24611 ft | 457 kts | 12° |
| 2026-05-07 19:37 | 39.81297 | 9.13038 | 25074 ft | 460 kts | 12° |
| 2026-05-07 19:37 | 39.84419 | 9.13984 | 25493 ft | 462 kts | 8° |
| 2026-05-07 19:38 | 39.87613 | 9.14481 | 25942 ft | 461 kts | 2° |
| 2026-05-07 19:38 | 39.90814 | 9.14784 | 26405 ft | 462 kts | 1° |
| 2026-05-07 19:38 | 39.94028 | 9.15005 | 26850 ft | 464 kts | 0° |
| 2026-05-07 19:38 | 39.97270 | 9.15182 | 27251 ft | 466 kts | 0° |
| 2026-05-07 19:39 | 40.00525 | 9.15340 | 27633 ft | 469 kts | 360° |
| 2026-05-07 19:39 | 40.03794 | 9.15493 | 28006 ft | 472 kts | 360° |
| 2026-05-07 19:39 | 40.07041 | 9.15648 | 28383 ft | 474 kts | 360° |
| 2026-05-07 19:39 | 40.10340 | 9.15811 | 28756 ft | 477 kts | 360° |
| 2026-05-07 19:40 | 40.13669 | 9.15981 | 29047 ft | 481 kts | 0° |
| 2026-05-07 19:40 | 40.17022 | 9.16155 | 29422 ft | 483 kts | 0° |
| 2026-05-07 19:40 | 40.20389 | 9.16332 | 29825 ft | 485 kts | 360° |
| 2026-05-07 19:40 | 40.23761 | 9.16458 | 29947 ft | 482 kts | 356° |
| 2026-05-07 19:41 | 40.30334 | 9.15201 | 29968 ft | 474 kts | 345° |
| 2026-05-07 19:41 | 40.36761 | 9.13295 | 29964 ft | 472 kts | 343° |
| 2026-05-07 19:42 | 40.43150 | 9.11255 | 29964 ft | 472 kts | 343° |
| 2026-05-07 19:42 | 40.49533 | 9.09214 | 29964 ft | 472 kts | 343° |
| 2026-05-07 19:43 | 40.55890 | 9.07199 | 29966 ft | 474 kts | 344° |
| 2026-05-07 19:43 | 40.62315 | 9.05170 | 29959 ft | 475 kts | 344° |
| 2026-05-07 19:44 | 40.68754 | 9.03137 | 29961 ft | 475 kts | 344° |
| 2026-05-07 19:44 | 40.75174 | 9.01105 | 29955 ft | 475 kts | 344° |
| 2026-05-07 19:45 | 40.81602 | 8.99066 | 29959 ft | 475 kts | 344° |
| 2026-05-07 19:45 | 40.88023 | 8.97024 | 29957 ft | 475 kts | 344° |
| 2026-05-07 19:46 | 40.94406 | 8.94989 | 29957 ft | 475 kts | 344° |
| 2026-05-07 19:46 | 41.00827 | 8.92940 | 29965 ft | 475 kts | 343° |
| 2026-05-07 19:47 | 41.07259 | 8.90882 | 29954 ft | 474 kts | 343° |
| 2026-05-07 19:47 | 41.13679 | 8.88823 | 29955 ft | 474 kts | 343° |
| 2026-05-07 19:48 | 41.20068 | 8.86772 | 29956 ft | 474 kts | 343° |
| 2026-05-07 19:48 | 41.26470 | 8.84636 | 29957 ft | 473 kts | 341° |
| 2026-05-07 19:49 | 41.32831 | 8.82341 | 29965 ft | 475 kts | 348° |
| 2026-05-07 19:49 | 41.39484 | 8.81879 | 29959 ft | 481 kts | 358° |
| 2026-05-07 19:50 | 41.46196 | 8.82121 | 29965 ft | 484 kts | 1° |
| 2026-05-07 19:50 | 41.52954 | 8.82529 | 29968 ft | 486 kts | 1° |
| 2026-05-07 19:51 | 41.59675 | 8.82928 | 29959 ft | 486 kts | 1° |
| 2026-05-07 19:51 | 41.66439 | 8.83301 | 29977 ft | 486 kts | 0° |
| 2026-05-07 19:52 | 41.73216 | 8.83661 | 29962 ft | 488 kts | 0° |
| 2026-05-07 19:52 | 41.80014 | 8.84019 | 29965 ft | 488 kts | 0° |
| 2026-05-07 19:53 | 41.86813 | 8.84381 | 29988 ft | 488 kts | 0° |
| 2026-05-07 19:53 | 41.93556 | 8.84743 | 29966 ft | 487 kts | 0° |
| 2026-05-07 19:54 | 42.00320 | 8.85104 | 29966 ft | 486 kts | 0° |
| 2026-05-07 19:54 | 42.07094 | 8.85466 | 29979 ft | 486 kts | 360° |
| 2026-05-07 19:55 | 42.13846 | 8.85830 | 29978 ft | 484 kts | 359° |
| 2026-05-07 19:55 | 42.20533 | 8.86189 | 29989 ft | 484 kts | 359° |
| 2026-05-07 19:56 | 42.27271 | 8.86551 | 30023 ft | 485 kts | 359° |
| 2026-05-07 19:56 | 42.34003 | 8.86917 | 29998 ft | 483 kts | 359° |
| 2026-05-07 19:57 | 42.40721 | 8.87280 | 29995 ft | 483 kts | 359° |
| 2026-05-07 19:57 | 42.47440 | 8.87645 | 29994 ft | 483 kts | 359° |
| 2026-05-07 19:58 | 42.54118 | 8.88007 | 29993 ft | 483 kts | 359° |
| 2026-05-07 19:58 | 42.60834 | 8.88374 | 29994 ft | 483 kts | 359° |
| 2026-05-07 19:59 | 42.67559 | 8.88744 | 30001 ft | 483 kts | 359° |
| 2026-05-07 19:59 | 42.74284 | 8.89114 | 29996 ft | 484 kts | 359° |
| 2026-05-07 20:00 | 42.80976 | 8.89494 | 30002 ft | 484 kts | 360° |
| 2026-05-07 20:00 | 42.87717 | 8.90173 | 30001 ft | 486 kts | 2° |
| 2026-05-07 20:01 | 42.94455 | 8.91007 | 30005 ft | 486 kts | 2° |
| 2026-05-07 20:01 | 43.01188 | 8.91833 | 30008 ft | 485 kts | 2° |
| 2026-05-07 20:02 | 43.07918 | 8.92632 | 30001 ft | 485 kts | 1° |
| 2026-05-07 20:02 | 43.14604 | 8.93416 | 29999 ft | 483 kts | 1° |
| 2026-05-07 20:03 | 43.21303 | 8.94199 | 30001 ft | 482 kts | 1° |
| 2026-05-07 20:03 | 43.27992 | 8.94963 | 30009 ft | 482 kts | 1° |
| 2026-05-07 20:04 | 43.34663 | 8.95709 | 30006 ft | 480 kts | 0° |
| 2026-05-07 20:04 | 43.41332 | 8.96462 | 30007 ft | 480 kts | 1° |
| 2026-05-07 20:05 | 43.47990 | 8.97248 | 30022 ft | 480 kts | 1° |
| 2026-05-07 20:05 | 43.54607 | 8.98040 | 30010 ft | 480 kts | 1° |
| 2026-05-07 20:06 | 43.61281 | 8.98838 | 30009 ft | 481 kts | 1° |
| 2026-05-07 20:06 | 43.67951 | 8.99636 | 30029 ft | 481 kts | 0° |
| 2026-05-07 20:07 | 43.74623 | 9.00435 | 30015 ft | 480 kts | 0° |
| 2026-05-07 20:07 | 43.81289 | 9.01234 | 30010 ft | 480 kts | 0° |
| 2026-05-07 20:08 | 43.87904 | 9.02038 | 30027 ft | 480 kts | 360° |
| 2026-05-07 20:08 | 43.94535 | 9.02850 | 30012 ft | 477 kts | 360° |
| 2026-05-07 20:09 | 44.01151 | 9.03641 | 30012 ft | 476 kts | 359° |
| 2026-05-07 20:10 | 44.10997 | 9.04813 | 29792 ft | 459 kts | 359° |
| 2026-05-07 20:10 | 44.14163 | 9.05199 | 28989 ft | 458 kts | 359° |
| 2026-05-07 20:10 | 44.17371 | 9.05575 | 27836 ft | 465 kts | 0° |
| 2026-05-07 20:10 | 44.20612 | 9.05947 | 26924 ft | 468 kts | 0° |
| 2026-05-07 20:11 | 44.23859 | 9.06322 | 26168 ft | 467 kts | 1° |
| 2026-05-07 20:11 | 44.27051 | 9.06696 | 25453 ft | 465 kts | 2° |
| 2026-05-07 20:11 | 44.30269 | 9.07074 | 24666 ft | 464 kts | 2° |
| 2026-05-07 20:11 | 44.33489 | 9.07455 | 23925 ft | 463 kts | 3° |
| 2026-05-07 20:12 | 44.36696 | 9.07834 | 23073 ft | 461 kts | 3° |
| 2026-05-07 20:12 | 44.39879 | 9.08208 | 22270 ft | 458 kts | 3° |
| 2026-05-07 20:12 | 44.43030 | 9.08149 | 21517 ft | 449 kts | 353° |
| 2026-05-07 20:12 | 44.46107 | 9.07628 | 20760 ft | 443 kts | 351° |
| 2026-05-07 20:13 | 44.48133 | 9.07226 | 20275 ft | 441 kts | 351° |
| 2026-05-07 20:13 | 44.51154 | 9.06604 | 19556 ft | 436 kts | 351° |
| 2026-05-07 20:13 | 44.54153 | 9.05981 | 18856 ft | 432 kts | 351° |
| 2026-05-07 20:13 | 44.58068 | 9.05167 | 17868 ft | 423 kts | 352° |
| 2026-05-07 20:14 | 44.60958 | 9.04569 | 16908 ft | 413 kts | 352° |
| 2026-05-07 20:14 | 44.62824 | 9.04182 | 16387 ft | 405 kts | 352° |
| 2026-05-07 20:14 | 44.65566 | 9.03619 | 15677 ft | 391 kts | 352° |
| 2026-05-07 20:14 | 44.68219 | 9.03072 | 15023 ft | 380 kts | 352° |
| 2026-05-07 20:15 | 44.70829 | 9.02535 | 14365 ft | 380 kts | 352° |
| 2026-05-07 20:15 | 44.73451 | 9.01990 | 13644 ft | 381 kts | 352° |
| 2026-05-07 20:15 | 44.76075 | 9.01445 | 12905 ft | 380 kts | 352° |
| 2026-05-07 20:15 | 44.78682 | 9.00901 | 12252 ft | 376 kts | 352° |
| 2026-05-07 20:16 | 44.81234 | 9.00368 | 11601 ft | 372 kts | 352° |
| 2026-05-07 20:16 | 44.83788 | 8.99834 | 10923 ft | 370 kts | 352° |
| 2026-05-07 20:16 | 44.86281 | 8.99310 | 10662 ft | 349 kts | 352° |
| 2026-05-07 20:16 | 44.88595 | 8.98828 | 10555 ft | 321 kts | 353° |
| 2026-05-07 20:17 | 44.90724 | 8.98384 | 10460 ft | 298 kts | 352° |
| 2026-05-07 20:17 | 44.92725 | 8.97964 | 10378 ft | 284 kts | 352° |
| 2026-05-07 20:17 | 44.94672 | 8.97631 | 10136 ft | 282 kts | 359° |
| 2026-05-07 20:17 | 44.96627 | 8.98010 | 9608 ft | 289 kts | 22° |
| 2026-05-07 20:18 | 44.98343 | 8.99469 | 9117 ft | 289 kts | 40° |
| 2026-05-07 20:18 | 44.99863 | 9.01307 | 8709 ft | 286 kts | 43° |
| 2026-05-07 20:18 | 45.01341 | 9.03186 | 8303 ft | 284 kts | 44° |
| 2026-05-07 20:18 | 45.02804 | 9.05045 | 7899 ft | 282 kts | 44° |
| 2026-05-07 20:19 | 45.04263 | 9.06886 | 7493 ft | 280 kts | 44° |
| 2026-05-07 20:19 | 45.05694 | 9.08683 | 7102 ft | 278 kts | 44° |
| 2026-05-07 20:19 | 45.07140 | 9.10494 | 6705 ft | 277 kts | 44° |
| 2026-05-07 20:19 | 45.08582 | 9.12298 | 6303 ft | 275 kts | 44° |
| 2026-05-07 20:20 | 45.10013 | 9.14088 | 5895 ft | 273 kts | 44° |
| 2026-05-07 20:20 | 45.11429 | 9.15858 | 5500 ft | 271 kts | 44° |
| 2026-05-07 20:20 | 45.12834 | 9.17616 | 5115 ft | 268 kts | 44° |
| 2026-05-07 20:20 | 45.14230 | 9.19363 | 4730 ft | 266 kts | 44° |
| 2026-05-07 20:21 | 45.15607 | 9.21087 | 4352 ft | 264 kts | 44° |
| 2026-05-07 20:21 | 45.16964 | 9.22786 | 4177 ft | 253 kts | 44° |
| 2026-05-07 20:21 | 45.18251 | 9.24391 | 4097 ft | 239 kts | 44° |
| 2026-05-07 20:21 | 45.19463 | 9.25899 | 4033 ft | 223 kts | 44° |
| 2026-05-07 20:22 | 45.20590 | 9.27301 | 3880 ft | 209 kts | 43° |
| 2026-05-07 20:22 | 45.21678 | 9.28652 | 3565 ft | 206 kts | 42° |
| 2026-05-07 20:22 | 45.22856 | 9.29705 | 3296 ft | 202 kts | 22° |
| 2026-05-07 20:22 | 45.24243 | 9.29981 | 3058 ft | 199 kts | 1° |
| 2026-05-07 20:23 | 45.25621 | 9.29825 | 2994 ft | 198 kts | 354° |
| 2026-05-07 20:23 | 45.26910 | 9.29603 | 2971 ft | 174 kts | 357° |
| 2026-05-07 20:23 | 45.28008 | 9.29482 | 2981 ft | 145 kts | 358° |
| 2026-05-07 20:23 | 45.28979 | 9.29391 | 2981 ft | 137 kts | 359° |
| 2026-05-07 20:24 | 45.29964 | 9.29289 | 3036 ft | 153 kts | 359° |
| 2026-05-07 20:24 | 45.31081 | 9.29152 | 2919 ft | 167 kts | 358° |
| 2026-05-07 20:24 | 45.32247 | 9.29021 | 2579 ft | 168 kts | 358° |
| 2026-05-07 20:24 | 45.33414 | 9.28900 | 2327 ft | 168 kts | 357° |
| 2026-05-07 20:25 | 45.34583 | 9.28776 | 2102 ft | 168 kts | 357° |
| 2026-05-07 20:25 | 45.35741 | 9.28653 | 1882 ft | 169 kts | 356° |
| 2026-05-07 20:25 | 45.36919 | 9.28526 | 1654 ft | 170 kts | 356° |
| 2026-05-07 20:25 | 45.38095 | 9.28401 | 1418 ft | 168 kts | 356° |
| 2026-05-07 20:26 | 45.39230 | 9.28300 | 1133 ft | 158 kts | 357° |
| 2026-05-07 20:26 | 45.40310 | 9.28184 | 936 ft | 153 kts | 356° |
| 2026-05-07 20:26 | 45.41377 | 9.28054 | 728 ft | 153 kts | 356° |
| 2026-05-07 20:26 | 45.42401 | 9.27930 | 546 ft | 146 kts | 357° |
| 2026-05-07 20:27 | 45.43426 | 9.27828 | 407 ft | 149 kts | 358° |
| 2026-05-07 20:27 | 45.44388 | 9.27744 | 362 ft | 116 kts | 356° |
| 2026-05-07 20:27 | 45.44909 | 9.27675 | 369 ft | 51 kts | 354° |
| 2026-05-07 20:27 | 45.45260 | 9.27647 | 362 ft | 46 kts | 9° |
| 2026-05-07 20:28 | 45.45407 | 9.27728 | 369 ft | 12 kts | 27° |
| 2026-05-07 20:28 | 45.45412 | 9.27732 | 371 ft | 0 kts | 29° |
| 2026-05-07 20:29 | 45.45417 | 9.27737 | 371 ft | 4 kts | 32° |
| 2026-05-07 20:29 | 45.45456 | 9.27786 | 366 ft | 12 kts | 45° |
| 2026-05-07 20:29 | 45.45556 | 9.27818 | 366 ft | 19 kts | 358° |
| 2026-05-07 20:29 | 45.45714 | 9.27823 | 366 ft | 26 kts | 0° |
| 2026-05-07 20:30 | 45.45881 | 9.27823 | 366 ft | 16 kts | 10° |
| 2026-05-07 20:30 | 45.45913 | 9.27918 | 371 ft | 7 kts | 59° |
| 2026-05-07 20:30 | 45.45948 | 9.27921 | 366 ft | 5 kts | 353° |
| 2026-05-07 20:30 | 45.45972 | 9.27915 | 366 ft | 0 kts | 357° |
| 2026-05-07 20:31 | 45.45973 | 9.27915 | 366 ft | 0 kts | 357° |